Time;durP1;ratioP1;P1;durP2;ratioP2;P2;SDS_P1;SDS_P2;PMS_P1;PMS_P2;Temp;Humidity;BMP_temperature;BMP_pressure;BME280_temperature;BME280_humidity;BME280_pressure;Samples;Min_cycle;Max_cycle;Signal;HPM_P1;HPM_P2
2023/04/03 00:01:10;;;;;;;1.93;1.00;;;2.70;99.90;;;;;;4979699;28;20049;-85
2023/04/03 00:03:36;;;;;;;1.80;1.10;;;2.70;99.90;;;;;;4989460;28;20042;-85
2023/04/03 00:06:03;;;;;;;3.07;1.37;;;2.70;99.90;;;;;;5011667;28;20044;-84
2023/04/03 00:08:30;;;;;;;4.17;1.40;;;2.60;99.90;;;;;;4972105;28;20402;-84
2023/04/03 00:10:57;;;;;;;2.57;1.30;;;2.60;99.90;;;;;;4972862;28;20048;-84
2023/04/03 00:13:23;;;;;;;2.30;1.30;;;2.60;99.90;;;;;;5009294;28;20045;-85
2023/04/03 00:15:49;;;;;;;2.50;1.00;;;2.50;99.90;;;;;;5001050;28;20738;-85
2023/04/03 00:18:15;;;;;;;2.67;1.30;;;2.50;99.90;;;;;;4992519;28;20077;-85
2023/04/03 00:20:41;;;;;;;2.30;1.20;;;2.50;99.90;;;;;;4986940;28;20049;-85
2023/04/03 00:23:06;;;;;;;2.87;1.50;;;2.40;99.90;;;;;;4979695;28;20045;-85
2023/04/03 00:25:32;;;;;;;2.33;1.53;;;2.40;99.90;;;;;;4984874;28;20046;-85
2023/04/03 00:27:59;;;;;;;2.57;1.20;;;2.40;99.90;;;;;;4998867;28;20049;-85
2023/04/03 00:30:25;;;;;;;2.20;1.30;;;2.30;99.90;;;;;;5015050;28;20037;-84
2023/04/03 00:32:51;;;;;;;2.80;1.57;;;2.40;99.90;;;;;;4992878;28;20053;-84
2023/04/03 00:35:18;;;;;;;4.30;1.70;;;2.30;99.90;;;;;;4964144;28;20044;-85
2023/04/03 00:37:44;;;;;;;3.30;1.40;;;2.30;99.90;;;;;;5012988;28;20124;-84
2023/04/03 00:40:12;;;;;;;1.70;1.03;;;2.20;99.90;;;;;;4979112;28;20048;-84
2023/04/03 00:42:40;;;;;;;2.33;1.30;;;2.20;99.90;;;;;;5014217;28;20055;-85
2023/04/03 00:45:06;;;;;;;4.30;1.53;;;2.20;99.90;;;;;;5008713;28;20034;-84
2023/04/03 00:47:32;;;;;;;1.87;1.30;;;2.20;99.90;;;;;;4989304;28;20045;-84
2023/04/03 00:49:58;;;;;;;2.43;1.40;;;2.10;99.90;;;;;;4980864;28;20068;-84
2023/04/03 00:52:28;;;;;;;3.00;1.70;;;2.10;99.90;;;;;;4992933;28;20444;-84
2023/04/03 00:54:57;;;;;;;3.43;1.53;;;2.10;99.90;;;;;;4995950;28;20037;-84
2023/04/03 00:57:24;;;;;;;3.90;1.57;;;2.10;99.90;;;;;;4992506;28;20409;-84
2023/04/03 00:59:55;;;;;;;1.60;1.40;;;2.00;99.90;;;;;;4973230;28;20561;-85
2023/04/03 01:02:21;;;;;;;1.87;1.60;;;2.00;99.90;;;;;;5001600;28;20112;-84
2023/04/03 01:04:47;;;;;;;3.80;1.87;;;2.00;99.90;;;;;;4985839;28;20129;-85
2023/04/03 01:07:18;;;;;;;2.17;1.70;;;2.00;99.90;;;;;;4975621;28;20049;-84
2023/04/03 01:09:45;;;;;;;3.37;1.57;;;2.00;99.90;;;;;;4994409;28;20041;-84
2023/04/03 01:12:22;;;;;;;3.83;1.50;;;1.90;99.90;;;;;;4988949;28;20042;-85
2023/04/03 01:14:51;;;;;;;1.73;1.37;;;1.90;99.90;;;;;;5013378;28;20041;-85
2023/04/03 01:17:40;;;;;;;4.10;1.70;;;1.80;99.90;;;;;;4987912;28;20092;-85
2023/04/03 01:20:30;;;;;;;3.53;1.60;;;1.90;99.90;;;;;;5003044;28;20037;-82
2023/04/03 01:23:02;;;;;;;3.87;1.60;;;1.80;99.90;;;;;;5031981;28;20171;-84
2023/04/03 01:25:28;;;;;;;2.33;1.60;;;1.80;99.90;;;;;;5004731;28;20045;-85
2023/04/03 01:27:53;;;;;;;3.00;1.50;;;1.80;99.90;;;;;;4994791;28;20044;-85
2023/04/03 01:30:23;;;;;;;2.87;1.80;;;1.70;99.90;;;;;;4997525;28;20106;-85
2023/04/03 01:32:49;;;;;;;2.97;1.60;;;1.70;99.90;;;;;;4998133;28;20037;-85
2023/04/03 01:35:15;;;;;;;3.67;2.00;;;1.70;99.90;;;;;;4970922;28;20045;-85
2023/04/03 01:37:40;;;;;;;4.83;1.73;;;1.70;99.90;;;;;;4989075;28;20096;-85
2023/04/03 01:40:07;;;;;;;2.80;1.70;;;1.70;99.90;;;;;;4980539;28;20037;-85
2023/04/03 01:42:33;;;;;;;5.03;1.83;;;1.70;99.90;;;;;;5013924;28;20050;-85
2023/04/03 01:44:59;;;;;;;3.23;1.83;;;1.60;99.90;;;;;;4997234;28;20046;-85
2023/04/03 01:47:25;;;;;;;2.97;1.73;;;1.60;99.90;;;;;;4997049;28;20469;-85
2023/04/03 01:49:50;;;;;;;4.83;2.13;;;1.60;99.90;;;;;;4979680;28;20038;-85
2023/04/03 01:52:16;;;;;;;3.90;1.70;;;1.60;99.90;;;;;;4978367;28;20129;-85
2023/04/03 01:54:42;;;;;;;5.60;2.00;;;1.60;99.90;;;;;;5013429;28;20041;-85
2023/04/03 01:57:07;;;;;;;3.13;1.97;;;1.60;99.90;;;;;;4998013;28;20045;-84
2023/04/03 01:59:33;;;;;;;5.33;1.90;;;1.50;99.90;;;;;;4989198;28;20539;-85
2023/04/03 02:01:59;;;;;;;2.87;1.70;;;1.50;99.90;;;;;;4997490;28;20156;-84
2023/04/03 02:04:24;;;;;;;4.67;1.97;;;1.50;99.90;;;;;;4987747;28;20049;-85
2023/04/03 02:06:50;;;;;;;3.40;2.07;;;1.50;99.90;;;;;;4980692;28;20545;-85
2023/04/03 02:09:16;;;;;;;3.03;1.87;;;1.40;99.90;;;;;;5014372;28;20040;-85
2023/04/03 02:11:41;;;;;;;2.87;1.90;;;1.40;99.90;;;;;;5013680;28;20080;-84
2023/04/03 02:14:07;;;;;;;5.73;1.80;;;1.40;99.90;;;;;;4967497;28;20038;-85
2023/04/03 02:16:33;;;;;;;3.93;1.93;;;1.40;99.90;;;;;;4995321;28;20050;-84
2023/04/03 02:18:58;;;;;;;3.53;1.90;;;1.40;99.90;;;;;;4955816;28;20073;-85
2023/04/03 02:21:24;;;;;;;5.00;1.83;;;1.40;99.90;;;;;;4981932;28;20046;-84
2023/04/03 02:23:50;;;;;;;6.10;1.83;;;1.30;99.90;;;;;;4968658;28;20048;-84
2023/04/03 02:26:16;;;;;;;4.87;2.00;;;1.30;99.90;;;;;;5001292;28;20108;-85
2023/04/03 02:28:42;;;;;;;4.10;1.93;;;1.30;99.90;;;;;;4985098;28;20088;-85
2023/04/03 02:31:10;;;;;;;2.60;1.80;;;1.20;99.90;;;;;;5006981;28;20473;-85
2023/04/03 02:33:36;;;;;;;3.47;2.20;;;1.20;99.90;;;;;;4988775;28;20034;-85
2023/04/03 02:36:04;;;;;;;5.37;2.00;;;1.20;99.90;;;;;;5016004;28;20505;-84
2023/04/03 02:38:30;;;;;;;2.77;2.03;;;1.10;99.90;;;;;;4981549;28;20046;-85
2023/04/03 02:41:10;;;;;;;6.43;2.93;;;1.10;99.90;;;;;;4998529;28;20552;-85
2023/04/03 02:43:36;;;;;;;5.57;2.50;;;1.10;99.90;;;;;;4994077;28;20057;-85
2023/04/03 02:46:02;;;;;;;4.87;2.20;;;1.00;99.90;;;;;;5010545;28;20049;-85
2023/04/03 02:48:28;;;;;;;3.87;2.33;;;1.10;99.90;;;;;;5000951;28;20550;-85
2023/04/03 02:50:53;;;;;;;4.93;2.13;;;1.00;99.90;;;;;;4984892;28;20045;-85
2023/04/03 02:53:19;;;;;;;4.90;2.00;;;0.90;99.90;;;;;;4989766;28;20520;-85
2023/04/03 02:55:45;;;;;;;5.47;2.10;;;0.90;99.90;;;;;;4997435;28;20044;-85
2023/04/03 02:58:11;;;;;;;4.93;1.70;;;0.90;99.90;;;;;;5005899;28;20049;-85
2023/04/03 03:00:37;;;;;;;5.07;2.20;;;0.80;99.90;;;;;;5008124;28;20041;-85
2023/04/03 03:03:04;;;;;;;3.40;1.77;;;0.80;99.90;;;;;;5016537;28;20064;-85
2023/04/03 03:05:30;;;;;;;5.60;2.20;;;0.80;99.90;;;;;;4984001;28;20521;-85
2023/04/03 03:07:55;;;;;;;6.97;2.57;;;0.70;99.90;;;;;;4994504;28;20038;-84
2023/04/03 03:10:22;;;;;;;3.40;2.00;;;0.70;99.90;;;;;;5016714;28;20037;-85
2023/04/03 03:12:48;;;;;;;5.30;2.27;;;0.70;99.90;;;;;;5005758;28;20566;-86
2023/04/03 03:15:15;;;;;;;3.00;2.07;;;0.60;99.90;;;;;;4987138;28;20519;-85
2023/04/03 03:17:40;;;;;;;4.33;2.27;;;0.60;99.90;;;;;;4992703;28;20052;-84
2023/04/03 03:20:07;;;;;;;5.27;2.50;;;0.50;99.90;;;;;;5003801;28;20494;-85
2023/04/03 03:22:34;;;;;;;6.67;2.27;;;0.50;99.90;;;;;;4993378;28;20147;-85
2023/04/03 03:25:00;;;;;;;4.17;2.40;;;0.40;99.90;;;;;;5000016;28;20064;-85
2023/04/03 03:27:26;;;;;;;9.07;2.77;;;0.40;99.90;;;;;;4999552;28;20532;-85
2023/04/03 03:29:52;;;;;;;5.27;2.27;;;0.30;99.90;;;;;;5000110;28;20041;-85
2023/04/03 03:32:17;;;;;;;5.30;2.57;;;0.30;99.90;;;;;;4999730;28;20044;-85
2023/04/03 03:34:43;;;;;;;5.73;2.50;;;0.30;99.90;;;;;;5000223;28;20041;-85
2023/04/03 03:37:09;;;;;;;5.23;2.90;;;0.30;99.90;;;;;;4970675;28;20803;-85
2023/04/03 03:39:34;;;;;;;8.83;2.83;;;0.30;99.90;;;;;;4999427;28;20041;-85
2023/04/03 03:42:00;;;;;;;5.13;2.80;;;0.40;99.90;;;;;;4976532;28;20523;-85
2023/04/03 03:44:27;;;;;;;6.50;2.80;;;0.40;99.90;;;;;;4965315;28;20038;-85
2023/04/03 03:46:53;;;;;;;6.23;3.20;;;0.40;99.90;;;;;;4980464;28;20065;-85
2023/04/03 03:49:19;;;;;;;6.23;3.10;;;0.40;99.90;;;;;;4965187;28;20045;-82
2023/04/03 03:51:45;;;;;;;6.77;2.73;;;0.40;99.90;;;;;;5001473;28;20497;-82
2023/04/03 03:54:11;;;;;;;8.07;3.20;;;0.40;99.90;;;;;;4988236;28;20420;-85
2023/04/03 03:56:36;;;;;;;4.47;2.90;;;0.40;99.90;;;;;;4984044;28;20053;-85
2023/04/03 03:59:02;;;;;;;3.80;2.90;;;0.40;99.90;;;;;;4997447;28;20052;-85
2023/04/03 04:01:28;;;;;;;5.10;3.40;;;0.40;99.90;;;;;;4991295;28;20048;-85
2023/04/03 04:03:55;;;;;;;7.70;3.20;;;0.40;99.90;;;;;;4980037;28;20049;-85
2023/04/03 04:06:21;;;;;;;6.93;3.43;;;0.40;99.90;;;;;;4994345;28;20567;-85
2023/04/03 04:08:47;;;;;;;7.03;3.30;;;0.30;99.90;;;;;;4982626;28;20033;-86
2023/04/03 04:11:12;;;;;;;6.73;3.57;;;0.30;99.90;;;;;;4985185;28;20558;-85
2023/04/03 04:13:38;;;;;;;6.77;3.50;;;0.30;99.90;;;;;;4993085;28;20046;-85
2023/04/03 04:16:05;;;;;;;4.53;3.23;;;0.30;99.90;;;;;;4975733;28;20114;-85
2023/04/03 04:18:30;;;;;;;8.20;2.97;;;0.30;99.90;;;;;;5009167;28;20529;-85
2023/04/03 04:20:56;;;;;;;7.00;3.30;;;0.30;99.90;;;;;;4963525;28;20048;-86
2023/04/03 04:23:22;;;;;;;5.47;3.30;;;0.20;99.90;;;;;;4989569;28;20052;-85
2023/04/03 04:25:49;;;;;;;6.20;3.20;;;0.20;99.90;;;;;;5015244;28;20046;-85
2023/04/03 04:28:15;;;;;;;6.57;3.23;;;0.20;99.90;;;;;;5004901;28;20067;-85
2023/04/03 04:30:41;;;;;;;5.80;3.50;;;0.20;99.90;;;;;;4982897;28;20339;-85
2023/04/03 04:33:07;;;;;;;5.80;3.60;;;0.20;99.90;;;;;;4992429;28;20512;-84
2023/04/03 04:35:33;;;;;;;7.63;3.30;;;0.20;99.90;;;;;;4994683;28;20048;-85
2023/04/03 04:37:59;;;;;;;9.57;3.93;;;0.20;99.90;;;;;;4982026;28;20134;-84
2023/04/03 04:40:25;;;;;;;6.87;3.80;;;0.20;99.90;;;;;;4992523;28;20496;-84
2023/04/03 04:42:51;;;;;;;6.20;3.70;;;0.20;99.90;;;;;;5015037;28;20072;-84
2023/04/03 04:45:17;;;;;;;6.87;3.53;;;0.10;99.90;;;;;;4962986;28;20034;-85
2023/04/03 04:47:43;;;;;;;6.57;4.00;;;0.10;99.90;;;;;;4995655;28;20390;-85
2023/04/03 04:50:09;;;;;;;7.37;3.87;;;0.10;99.90;;;;;;5006685;28;20075;-85
2023/04/03 04:52:35;;;;;;;5.50;3.63;;;0.00;99.90;;;;;;4996806;28;20037;-85
2023/04/03 04:55:01;;;;;;;7.90;3.87;;;0.00;99.90;;;;;;5008371;28;20072;-85
2023/04/03 04:57:26;;;;;;;9.13;4.33;;;0.00;99.90;;;;;;5005557;28;20500;-85
2023/04/03 04:59:52;;;;;;;8.03;4.47;;;0.00;99.90;;;;;;4982689;28;20033;-85
2023/04/03 05:02:18;;;;;;;6.57;4.13;;;0.00;99.90;;;;;;4998112;28;20524;-85
2023/04/03 05:04:43;;;;;;;10.13;4.27;;;0.00;99.90;;;;;;5026253;28;20132;-86
2023/04/03 05:07:09;;;;;;;9.73;4.47;;;0.10;99.90;;;;;;4994600;28;20041;-86
2023/04/03 05:09:35;;;;;;;6.83;4.23;;;0.00;99.90;;;;;;5001292;28;20053;-86
2023/04/03 05:12:02;;;;;;;6.97;4.20;;;0.00;99.90;;;;;;5005912;28;20049;-86
2023/04/03 05:14:28;;;;;;;11.20;4.63;;;0.00;99.90;;;;;;4983055;28;20517;-86
2023/04/03 05:16:54;;;;;;;7.80;4.27;;;0.00;99.90;;;;;;5014312;28;20288;-85
2023/04/03 05:19:23;;;;;;;5.83;4.13;;;0.00;99.90;;;;;;4997729;28;20049;-85
2023/04/03 05:21:49;;;;;;;7.83;4.23;;;0.00;99.90;;;;;;4996892;28;20048;-86
2023/04/03 05:24:15;;;;;;;12.30;4.87;;;0.00;99.90;;;;;;4981754;28;20050;-87
2023/04/03 05:26:42;;;;;;;10.90;4.80;;;0.00;99.90;;;;;;4997590;28;20037;-86
2023/04/03 05:29:07;;;;;;;6.73;4.53;;;0.10;99.90;;;;;;4977279;28;20100;-86
2023/04/03 05:31:33;;;;;;;9.07;4.87;;;0.10;99.90;;;;;;4978773;28;20042;-86
2023/04/03 05:33:59;;;;;;;8.47;4.83;;;0.10;99.90;;;;;;4994521;28;20061;-85
2023/04/03 05:36:25;;;;;;;11.80;5.40;;;0.10;99.90;;;;;;4994865;28;20073;-85
2023/04/03 05:38:52;;;;;;;8.10;5.17;;;0.20;99.90;;;;;;4971066;28;20049;-85
2023/04/03 05:41:17;;;;;;;10.60;5.20;;;0.20;99.90;;;;;;4978392;28;20050;-86
2023/04/03 05:43:43;;;;;;;10.50;5.33;;;0.20;99.90;;;;;;4978732;28;20289;-86
2023/04/03 05:46:14;;;;;;;9.77;5.30;;;0.30;99.90;;;;;;4983263;28;20489;-86
2023/04/03 05:48:40;;;;;;;9.63;5.30;;;0.30;99.90;;;;;;5013946;28;20045;-86
2023/04/03 05:51:09;;;;;;;9.10;5.60;;;0.30;99.90;;;;;;4995722;28;20692;-85
2023/04/03 05:53:39;;;;;;;7.43;5.23;;;0.30;99.90;;;;;;4989508;28;20296;-86
2023/04/03 05:56:05;;;;;;;11.13;5.57;;;0.40;99.90;;;;;;5011576;28;20041;-86
2023/04/03 05:58:30;;;;;;;10.30;6.07;;;0.40;99.90;;;;;;4990162;28;20434;-86
2023/04/03 06:00:57;;;;;;;9.30;5.50;;;0.50;99.90;;;;;;4973158;28;20407;-86
2023/04/03 06:03:23;;;;;;;12.47;5.30;;;0.50;99.90;;;;;;4989684;28;20051;-86
2023/04/03 06:05:49;;;;;;;11.13;5.57;;;0.60;99.90;;;;;;4993010;28;20050;-86
2023/04/03 06:08:15;;;;;;;9.67;5.37;;;0.60;99.90;;;;;;5010678;28;20069;-86
2023/04/03 06:10:40;;;;;;;7.63;5.33;;;0.60;99.90;;;;;;5007174;28;20073;-86
2023/04/03 06:13:06;;;;;;;11.43;5.47;;;0.70;99.90;;;;;;4981248;28;20034;-86
2023/04/03 06:15:33;;;;;;;9.57;5.23;;;0.70;99.90;;;;;;5007776;28;20112;-86
2023/04/03 06:17:59;;;;;;;9.53;5.60;;;0.80;99.90;;;;;;5006130;28;20049;-84
2023/04/03 06:20:25;;;;;;;9.73;4.97;;;0.80;99.90;;;;;;5016069;28;20041;-85
2023/04/03 06:22:51;;;;;;;10.67;5.23;;;0.90;99.90;;;;;;4991343;28;20100;-83
2023/04/03 06:25:18;;;;;;;9.87;5.70;;;0.90;99.90;;;;;;4992588;28;20124;-82
2023/04/03 06:27:45;;;;;;;9.00;5.80;;;1.00;99.90;;;;;;4993127;28;20440;-86
2023/04/03 06:30:12;;;;;;;11.90;5.57;;;1.00;99.90;;;;;;5005831;28;20124;-86
2023/04/03 06:32:38;;;;;;;10.23;5.73;;;1.10;99.90;;;;;;5007618;28;21781;-86
2023/04/03 06:35:05;;;;;;;8.57;5.90;;;1.20;99.90;;;;;;4989095;28;20042;-86
2023/04/03 06:37:32;;;;;;;10.37;5.23;;;1.20;99.90;;;;;;5008973;28;20037;-86
2023/04/03 06:39:58;;;;;;;7.63;5.37;;;1.30;99.90;;;;;;4991328;28;20068;-86
2023/04/03 06:42:24;;;;;;;10.03;5.57;;;1.30;99.90;;;;;;4981734;28;20049;-86
2023/04/03 06:44:50;;;;;;;11.47;5.20;;;1.40;99.90;;;;;;5004918;28;20116;-86
2023/04/03 06:47:17;;;;;;;9.97;4.67;;;1.40;99.90;;;;;;4982552;28;20620;-85
2023/04/03 06:49:43;;;;;;;7.30;4.80;;;1.40;99.90;;;;;;4971016;28;20077;-86
2023/04/03 06:52:09;;;;;;;8.80;5.23;;;1.50;99.90;;;;;;4988837;28;20041;-86
2023/04/03 06:54:35;;;;;;;12.13;5.33;;;1.60;99.90;;;;;;4963508;28;20037;-86
2023/04/03 06:57:01;;;;;;;7.63;5.07;;;1.60;99.90;;;;;;4989035;28;20116;-86
2023/04/03 06:59:27;;;;;;;7.90;4.93;;;1.70;99.90;;;;;;5008803;28;20432;-85
2023/04/03 07:01:53;;;;;;;8.90;4.90;;;1.80;99.90;;;;;;5007072;28;20053;-86
2023/04/03 07:04:20;;;;;;;8.30;4.60;;;1.80;99.90;;;;;;5008063;28;20448;-85
2023/04/03 07:06:46;;;;;;;12.13;5.10;;;1.90;99.90;;;;;;4991689;28;20041;-85
2023/04/03 07:09:13;;;;;;;8.87;4.33;;;2.00;99.90;;;;;;4990088;28;20045;-86
2023/04/03 07:11:39;;;;;;;10.00;5.10;;;2.10;99.90;;;;;;5007940;28;20130;-85
2023/04/03 07:14:06;;;;;;;11.27;4.57;;;2.20;99.90;;;;;;4974924;28;20095;-85
2023/04/03 07:16:32;;;;;;;8.20;4.27;;;2.30;99.90;;;;;;4972681;28;20053;-85
2023/04/03 07:18:57;;;;;;;8.37;4.27;;;2.30;99.90;;;;;;5006496;28;20040;-85
2023/04/03 07:21:24;;;;;;;7.37;4.03;;;2.40;99.90;;;;;;5006422;28;20388;-86
2023/04/03 07:23:49;;;;;;;7.30;3.40;;;2.50;99.90;;;;;;4990044;28;20052;-86
2023/04/03 07:26:15;;;;;;;9.13;4.30;;;2.60;99.90;;;;;;5003659;28;20045;-85
2023/04/03 07:28:41;;;;;;;7.97;3.63;;;2.70;99.90;;;;;;4980658;28;20056;-86
2023/04/03 07:31:10;;;;;;;6.90;3.80;;;2.80;99.90;;;;;;4987841;28;20069;-86
2023/04/03 07:33:38;;;;;;;8.17;3.73;;;2.90;99.90;;;;;;4985247;28;20040;-86
2023/04/03 07:36:05;;;;;;;10.33;3.83;;;3.00;99.90;;;;;;5008762;28;20068;-85
2023/04/03 07:38:31;;;;;;;6.83;3.10;;;3.10;99.90;;;;;;4992729;28;20041;-86
2023/04/03 07:40:56;;;;;;;7.73;3.60;;;3.10;99.90;;;;;;4990385;28;20033;-85
2023/04/03 07:43:24;;;;;;;9.23;3.33;;;3.20;99.90;;;;;;4973605;28;20048;-87
2023/04/03 07:45:50;;;;;;;7.37;3.30;;;3.30;99.90;;;;;;5000980;28;20046;-87
2023/04/03 07:48:21;;;;;;;5.03;3.10;;;3.40;99.90;;;;;;5002781;28;20045;-87
2023/04/03 07:50:46;;;;;;;7.60;3.60;;;3.50;99.90;;;;;;4986713;28;20042;-87
2023/04/03 07:53:12;;;;;;;7.20;3.30;;;3.60;99.90;;;;;;4984826;28;20049;-86
2023/04/03 07:55:42;;;;;;;7.73;3.13;;;3.70;99.90;;;;;;4971118;28;20388;-86
2023/04/03 07:58:14;;;;;;;3.57;2.33;;;3.80;99.90;;;;;;4986498;28;20053;-86
2023/04/03 08:00:40;;;;;;;6.63;2.42;;;3.90;99.90;;;;;;4987399;28;20054;-85
2023/04/03 08:03:07;;;;;;;4.83;2.60;;;4.00;99.90;;;;;;4987707;28;20513;-85
2023/04/03 08:05:38;;;;;;;6.90;2.30;;;4.10;99.90;;;;;;4986899;28;20049;-85
2023/04/03 08:08:05;;;;;;;5.83;2.40;;;4.20;99.90;;;;;;4986819;28;20129;-86
2023/04/03 08:10:31;;;;;;;9.80;2.80;;;4.30;99.90;;;;;;4983820;28;20046;-85
2023/04/03 08:12:57;;;;;;;4.63;2.47;;;4.40;99.90;;;;;;4969506;28;20069;-86
2023/04/03 08:15:22;;;;;;;6.00;2.43;;;4.50;99.90;;;;;;4985405;28;20044;-86
2023/04/03 08:17:49;;;;;;;6.47;2.37;;;4.60;99.90;;;;;;4984595;28;20049;-86
2023/04/03 08:20:14;;;;;;;5.80;2.50;;;4.70;99.90;;;;;;5003213;28;20049;-85
2023/04/03 08:22:40;;;;;;;3.20;2.07;;;4.80;99.90;;;;;;5000875;28;20468;-84
2023/04/03 08:25:06;;;;;;;5.80;2.33;;;4.90;99.90;;;;;;5001180;28;20030;-86
2023/04/03 08:27:32;;;;;;;5.27;2.30;;;5.00;99.90;;;;;;4969932;28;20046;-87
2023/04/03 08:29:58;;;;;;;5.47;2.70;;;5.20;99.90;;;;;;5002802;28;20042;-85
2023/04/03 08:32:24;;;;;;;6.07;2.10;;;5.20;99.90;;;;;;4967888;28;20121;-85
2023/04/03 08:34:50;;;;;;;5.40;2.10;;;5.30;99.90;;;;;;5002144;28;20121;-87
2023/04/03 08:37:16;;;;;;;4.17;2.30;;;5.40;99.90;;;;;;4983067;28;20482;-86
2023/04/03 08:39:43;;;;;;;4.83;2.10;;;5.50;99.90;;;;;;4992749;28;20049;-87
2023/04/03 08:42:38;;;;;;;5.57;2.10;;;5.60;99.90;;;;;;4971795;28;20558;-87
2023/04/03 08:45:28;;;;;;;4.27;2.00;;;5.70;99.90;;;;;;4986675;28;20091;-87
2023/04/03 08:48:09;;;;;;;4.03;2.30;;;5.80;99.90;;;;;;4984723;28;20093;-86
2023/04/03 08:50:42;;;;;;;3.70;1.70;;;5.90;99.90;;;;;;4984684;28;20486;-84
2023/04/03 08:53:22;;;;;;;4.57;2.13;;;6.10;99.90;;;;;;5001605;28;20133;-86
2023/04/03 08:55:53;;;;;;;4.13;2.03;;;6.30;99.90;;;;;;5000814;28;20030;-85
2023/04/03 08:58:20;;;;;;;5.67;1.93;;;6.40;99.90;;;;;;4984282;28;20038;-86
2023/04/03 09:00:59;;;;;;;3.57;1.63;;;6.40;99.90;;;;;;4985203;28;20096;-85
2023/04/03 09:03:24;;;;;;;5.30;1.80;;;6.50;99.90;;;;;;4983611;28;20140;-86
2023/04/03 09:06:17;;;;;;;2.07;1.63;;;6.60;99.90;;;;;;4984962;28;20120;-86
2023/04/03 09:09:05;;;;;;;7.57;1.70;;;6.70;99.90;;;;;;4997918;28;20052;-87
2023/04/03 09:11:50;;;;;;;3.67;2.13;;;6.70;99.90;;;;;;5002523;28;21704;-84
2023/04/03 09:14:37;;;;;;;5.73;1.40;;;6.80;99.90;;;;;;4983566;28;20497;-86
2023/04/03 09:17:23;;;;;;;4.17;1.63;;;6.90;99.90;;;;;;4999939;28;20049;-85
2023/04/03 09:19:58;;;;;;;5.23;1.80;;;6.90;99.90;;;;;;4980882;28;20052;-85
2023/04/03 09:22:25;;;;;;;4.53;1.60;;;7.10;99.90;;;;;;4979532;28;20065;-86
2023/04/03 09:25:11;;;;;;;2.70;1.50;;;7.20;99.90;;;;;;4980759;28;20557;-86
2023/04/03 09:27:37;;;;;;;3.80;1.60;;;7.30;99.90;;;;;;4981759;28;20053;-86
2023/04/03 09:30:03;;;;;;;5.50;2.10;;;7.40;99.90;;;;;;4983583;28;20038;-85
2023/04/03 09:32:32;;;;;;;2.80;1.30;;;7.50;99.90;;;;;;4996793;28;20046;-86
2023/04/03 09:35:14;;;;;;;3.93;1.27;;;7.60;99.90;;;;;;4981283;28;20053;-86
2023/04/03 09:37:51;;;;;;;3.58;1.35;;;7.60;99.90;;;;;;4997644;28;20045;-85
2023/04/03 09:40:27;;;;;;;4.33;2.00;;;7.70;99.90;;;;;;4997644;28;20049;-86
2023/04/03 09:42:59;;;;;;;3.53;1.67;;;7.70;99.90;;;;;;4980162;28;20041;-86
2023/04/03 09:45:34;;;;;;;2.92;1.27;;;7.80;99.90;;;;;;4995181;28;20052;-85
2023/04/03 09:48:12;;;;;;;2.90;1.00;;;7.80;99.90;;;;;;5003925;28;20107;-87
2023/04/03 09:50:58;;;;;;;3.87;1.20;;;7.90;99.90;;;;;;4999558;28;20072;-87
2023/04/03 09:53:42;;;;;;;1.67;1.30;;;7.90;96.40;;;;;;5003286;28;20056;-80
2023/04/03 09:56:13;;;;;;;3.87;1.43;;;8.00;99.90;;;;;;4998700;28;20046;-79
2023/04/03 09:58:40;;;;;;;3.28;1.30;;;8.10;97.60;;;;;;4998612;28;20049;-80
2023/04/03 10:01:22;;;;;;;2.77;1.03;;;8.10;99.90;;;;;;4999670;28;20072;-80
2023/04/03 10:04:11;;;;;;;3.13;1.10;;;8.20;93.20;;;;;;4998389;28;20120;-80
2023/04/03 10:06:46;;;;;;;2.47;1.40;;;8.20;91.20;;;;;;5000026;28;20084;-79
2023/04/03 10:09:32;;;;;;;3.37;1.37;;;8.20;96.80;;;;;;4982725;28;20382;-80
2023/04/03 10:12:10;;;;;;;2.40;1.30;;;8.30;90.00;;;;;;5000177;28;20128;-81
2023/04/03 10:15:00;;;;;;;4.00;1.47;;;8.30;98.20;;;;;;5018400;28;20118;-80
2023/04/03 10:17:31;;;;;;;2.23;1.00;;;8.40;93.50;;;;;;4998016;28;20053;-81
2023/04/03 10:20:07;;;;;;;2.23;1.30;;;8.50;91.50;;;;;;5018903;28;20062;-81
2023/04/03 10:22:51;;;;;;;2.13;1.23;;;8.50;87.90;;;;;;4985905;28;20065;-81
2023/04/03 10:25:39;;;;;;;3.47;1.30;;;8.60;86.50;;;;;;4998777;28;20393;-81
2023/04/03 10:28:33;;;;;;;3.03;1.37;;;8.60;80.30;;;;;;5001109;28;20791;-80
2023/04/03 10:31:27;;;;;;;2.50;1.10;;;8.70;83.60;;;;;;4999043;28;20037;-80
2023/04/03 10:34:03;;;;;;;3.03;1.17;;;8.80;84.00;;;;;;4984318;28;20042;-81
2023/04/03 10:36:51;;;;;;;3.50;1.30;;;8.80;86.90;;;;;;5000862;28;20049;-81
2023/04/03 10:39:25;;;;;;;3.10;1.30;;;8.90;83.70;;;;;;5001621;28;20044;-80
2023/04/03 10:41:50;;;;;;;2.87;1.40;;;8.90;82.10;;;;;;5002512;28;20381;-80
2023/04/03 10:44:30;;;;;;;3.13;1.73;;;8.80;80.50;;;;;;4986063;28;20045;-79
2023/04/03 10:47:06;;;;;;;3.70;1.50;;;8.60;78.40;;;;;;5001463;28;20053;-81
2023/04/03 10:49:42;;;;;;;2.60;1.33;;;8.70;83.40;;;;;;5002172;28;20038;-80
2023/04/03 10:52:40;;;;;;;3.13;1.30;;;8.80;81.10;;;;;;5002151;28;20053;-81
2023/04/03 10:55:35;;;;;;;2.57;1.70;;;8.80;76.10;;;;;;4999451;28;20042;-80
2023/04/03 10:58:03;;;;;;;2.57;1.40;;;9.00;73.20;;;;;;5001458;28;20029;-81
2023/04/03 11:00:48;;;;;;;4.47;1.53;;;9.00;75.90;;;;;;4985732;28;20500;-80
2023/04/03 11:03:43;;;;;;;2.87;1.33;;;9.00;72.70;;;;;;5001579;28;20041;-79
2023/04/03 11:06:12;;;;;;;2.77;1.33;;;8.90;70.60;;;;;;4985035;28;20038;-80
2023/04/03 11:08:55;;;;;;;3.83;1.90;;;8.90;73.30;;;;;;4990219;28;20069;-81
2023/04/03 11:11:35;;;;;;;3.83;1.60;;;9.00;72.10;;;;;;5012692;28;20120;-81
2023/04/03 11:14:34;;;;;;;2.13;1.40;;;9.20;71.30;;;;;;4997636;28;20037;-81
2023/04/03 11:17:10;;;;;;;3.67;1.60;;;9.20;70.70;;;;;;4981686;28;20494;-80
2023/04/03 11:19:44;;;;;;;2.00;1.60;;;9.40;71.70;;;;;;5000664;28;20050;-80
2023/04/03 11:22:26;;;;;;;1.70;1.43;;;9.30;71.00;;;;;;5003866;28;20046;-81
2023/04/03 11:25:03;;;;;;;2.67;1.10;;;9.50;70.70;;;;;;4988305;28;20045;-80
2023/04/03 11:27:39;;;;;;;3.03;1.13;;;9.50;69.00;;;;;;4998996;28;20049;-81
2023/04/03 11:30:09;;;;;;;3.13;1.37;;;9.40;69.50;;;;;;4984252;28;20070;-80
2023/04/03 11:32:38;;;;;;;4.70;1.40;;;9.40;69.60;;;;;;4992631;28;20089;-79
2023/04/03 11:35:07;;;;;;;5.90;1.30;;;9.10;68.80;;;;;;5020624;28;20044;-79
2023/04/03 11:37:44;;;;;;;3.13;1.40;;;9.10;68.40;;;;;;4984952;28;20045;-79
2023/04/03 11:40:17;;;;;;;2.23;1.20;;;9.00;68.70;;;;;;4989503;28;20046;-80
2023/04/03 11:43:07;;;;;;;2.73;1.13;;;9.10;69.20;;;;;;4984011;28;20049;-80
2023/04/03 11:45:50;;;;;;;2.97;1.43;;;9.30;68.50;;;;;;5002317;28;20064;-81
2023/04/03 11:48:28;;;;;;;3.67;1.37;;;9.50;69.10;;;;;;5004005;28;20409;-80
2023/04/03 11:51:01;;;;;;;3.03;1.30;;;9.60;68.90;;;;;;5004325;28;20033;-80
2023/04/03 11:53:39;;;;;;;3.50;1.30;;;9.80;69.00;;;;;;4986016;28;20208;-79
2023/04/03 11:56:23;;;;;;;4.07;1.57;;;9.90;67.10;;;;;;5006216;28;20728;-79
2023/04/03 11:59:11;;;;;;;4.13;1.47;;;10.00;67.50;;;;;;5000483;28;20087;-80
2023/04/03 12:01:53;;;;;;;2.57;1.27;;;9.90;64.60;;;;;;4986144;28;20381;-80
2023/04/03 12:04:21;;;;;;;4.35;1.65;;;9.90;66.10;;;;;;4988347;28;20045;-79
2023/04/03 12:06:48;;;;;;;2.47;1.30;;;9.80;67.30;;;;;;5002376;28;20041;-80
2023/04/03 12:09:32;;;;;;;2.60;1.20;;;9.80;66.90;;;;;;5000675;28;20069;-81
2023/04/03 12:12:01;;;;;;;4.60;1.47;;;9.80;65.60;;;;;;5000136;28;20460;-80
2023/04/03 12:14:28;;;;;;;2.90;1.23;;;9.80;66.50;;;;;;5003222;28;20037;-80
2023/04/03 12:16:57;;;;;;;3.53;1.50;;;9.80;66.40;;;;;;4986222;28;20557;-80
2023/04/03 12:19:40;;;;;;;2.27;1.23;;;9.90;66.90;;;;;;5003377;28;20041;-80
2023/04/03 12:22:08;;;;;;;1.80;1.23;;;10.00;65.30;;;;;;5000982;28;20049;-79
2023/04/03 12:24:42;;;;;;;4.27;1.43;;;10.00;65.60;;;;;;5004021;28;20057;-80
2023/04/03 12:27:26;;;;;;;4.97;1.50;;;10.00;65.00;;;;;;4978513;28;20049;-81
2023/04/03 12:30:03;;;;;;;2.20;1.20;;;10.00;65.00;;;;;;5001299;28;20033;-80
2023/04/03 12:32:38;;;;;;;5.03;1.60;;;10.10;67.10;;;;;;5002091;28;20045;-79
2023/04/03 12:35:23;;;;;;;3.07;1.40;;;10.30;66.60;;;;;;5002499;28;20046;-80
2023/04/03 12:38:14;;;;;;;3.13;1.37;;;10.30;65.60;;;;;;4998534;28;20037;-79
2023/04/03 12:40:52;;;;;;;4.13;1.20;;;10.40;65.10;;;;;;5015582;28;20053;-80
2023/04/03 12:43:30;;;;;;;2.67;1.30;;;10.40;64.30;;;;;;4985517;28;20390;-80
2023/04/03 12:46:04;;;;;;;2.27;1.30;;;10.30;64.80;;;;;;5003088;28;21586;-79
2023/04/03 12:48:33;;;;;;;3.33;1.40;;;10.30;64.20;;;;;;4984563;28;20104;-80
2023/04/03 12:51:00;;;;;;;4.50;1.20;;;10.30;64.70;;;;;;4983505;28;20081;-79
2023/04/03 12:53:34;;;;;;;3.00;1.23;;;10.20;64.20;;;;;;4995293;28;20151;-79
2023/04/03 12:56:18;;;;;;;3.57;1.27;;;10.30;64.70;;;;;;4976379;28;20037;-81
2023/04/03 12:58:44;;;;;;;2.63;1.43;;;10.20;62.10;;;;;;5001595;28;20520;-80
2023/04/03 13:01:14;;;;;;;3.40;1.30;;;10.00;64.10;;;;;;5013755;28;20033;-79
2023/04/03 13:03:44;;;;;;;3.57;1.40;;;9.90;64.00;;;;;;5004237;28;20132;-80
2023/04/03 13:06:37;;;;;;;2.50;1.60;;;9.90;64.50;;;;;;4996861;28;20042;-80
2023/04/03 13:09:04;;;;;;;3.83;1.40;;;10.00;63.20;;;;;;4996901;28;20038;-79
2023/04/03 13:11:56;;;;;;;2.30;1.40;;;9.90;63.50;;;;;;4999483;28;20473;-80